Time;durP1;ratioP1;P1;durP2;ratioP2;P2;SDS_P1;SDS_P2;PMS_P1;PMS_P2;Temp;Humidity;BMP_temperature;BMP_pressure;BME280_temperature;BME280_humidity;BME280_pressure;Samples;Min_cycle;Max_cycle;Signal;HPM_P1;HPM_P2
2022/09/03 04:53:46;;;;;;;2.13;0.68;;;14.40;91.60;;;;;;6233018;22;20018;-96
2022/09/03 06:26:56;;;;;;;2.53;0.90;;;14.80;92.50;;;;;;6243508;22;20019;-90
2022/09/03 06:29:22;;;;;;;1.30;0.80;;;15.10;92.80;;;;;;6287264;22;20018;-92
2022/09/03 06:31:49;;;;;;;3.05;0.90;;;15.90;92.50;;;;;;6261951;22;20022;-90
2022/09/03 06:34:17;;;;;;;1.58;0.70;;;16.60;91.60;;;;;;6287113;22;20018;-89
2022/09/03 06:36:43;;;;;;;1.20;0.65;;;17.00;91.00;;;;;;6287020;22;20022;-89
2022/09/03 06:39:08;;;;;;;1.67;0.77;;;17.00;90.90;;;;;;6287167;22;20499;-88
2022/09/03 06:41:53;;;;;;;1.75;0.70;;;16.90;90.90;;;;;;6288303;22;20015;-90
2022/09/03 06:44:19;;;;;;;1.25;0.70;;;16.70;91.00;;;;;;6261955;22;20022;-90
2022/09/03 06:46:46;;;;;;;1.70;0.93;;;16.60;91.10;;;;;;6287537;22;20054;-91
2022/09/03 06:49:12;;;;;;;1.80;0.80;;;16.40;91.10;;;;;;6287284;22;20037;-90
2022/09/03 06:51:38;;;;;;;2.47;0.93;;;16.40;91.30;;;;;;6286977;22;20014;-90
2022/09/03 06:54:09;;;;;;;1.52;0.70;;;16.30;91.20;;;;;;6312775;22;20018;-92
2022/09/03 06:56:36;;;;;;;1.48;0.60;;;16.30;91.20;;;;;;6261955;22;20037;-90
2022/09/03 06:59:11;;;;;;;1.55;0.80;;;16.30;91.20;;;;;;6261967;22;20107;-88
2022/09/03 07:01:39;;;;;;;1.58;0.63;;;16.30;91.10;;;;;;6287062;22;20481;-89
2022/09/03 07:04:06;;;;;;;1.67;0.73;;;16.40;90.90;;;;;;6262579;22;20023;-89
2022/09/03 07:06:38;;;;;;;1.52;0.80;;;16.40;91.00;;;;;;6312667;22;20026;-89
2022/09/03 07:09:05;;;;;;;1.45;0.75;;;16.40;91.00;;;;;;6287041;22;20022;-91
2022/09/03 07:11:34;;;;;;;1.40;0.60;;;16.40;91.10;;;;;;6312706;22;20015;-90
2022/09/03 07:14:01;;;;;;;1.85;0.73;;;16.40;91.20;;;;;;6287234;22;20015;-88
2022/09/03 07:16:46;;;;;;;2.38;0.77;;;16.40;91.20;;;;;;6288164;22;20018;-88
2022/09/03 07:19:12;;;;;;;3.25;0.90;;;16.50;91.10;;;;;;6284942;22;20037;-88
2022/09/03 07:21:41;;;;;;;1.33;0.77;;;16.60;91.20;;;;;;6286484;22;20440;-89
2022/09/03 07:24:08;;;;;;;1.92;0.80;;;16.60;91.10;;;;;;6262426;22;20068;-93
2022/09/03 07:26:36;;;;;;;1.33;0.65;;;16.60;91.00;;;;;;6284280;22;20017;-91
2022/09/03 07:29:04;;;;;;;1.85;0.63;;;16.80;91.00;;;;;;6285635;22;20397;-90
2022/09/03 07:32:22;;;;;;;2.78;0.70;;;16.90;90.90;;;;;;6259947;22;20482;-90
2022/09/03 07:35:08;;;;;;;1.50;0.77;;;16.90;90.90;;;;;;6285706;22;20090;-94
2022/09/03 07:37:39;;;;;;;2.45;0.80;;;17.00;90.90;;;;;;6260892;22;20035;-91
2022/09/03 07:40:05;;;;;;;1.75;0.80;;;17.10;90.90;;;;;;6285278;22;20023;-87
2022/09/03 07:42:31;;;;;;;1.77;0.77;;;17.10;90.80;;;;;;6261991;22;20015;-92
2022/09/03 07:47:33;;;;;;;1.40;0.60;;;17.20;90.60;;;;;;6326739;22;20378;-93
2022/09/03 07:50:15;;;;;;;1.30;0.55;;;17.20;90.70;;;;;;6287672;22;20023;-90
2022/09/03 07:52:40;;;;;;;1.38;0.55;;;17.30;90.60;;;;;;6287457;22;20097;-89
2022/09/03 07:55:08;;;;;;;2.05;0.70;;;17.40;90.60;;;;;;6285867;22;20010;-91
2022/09/03 07:57:33;;;;;;;1.30;0.50;;;17.40;90.60;;;;;;6236008;22;20019;-89
2022/09/03 07:59:59;;;;;;;1.15;0.60;;;17.50;90.60;;;;;;6286900;22;20090;-90
2022/09/03 08:02:25;;;;;;;1.15;0.50;;;17.60;90.50;;;;;;6286504;22;20011;-90
2022/09/03 08:04:51;;;;;;;1.15;0.60;;;17.60;90.40;;;;;;6261346;22;20015;-88
2022/09/03 08:07:17;;;;;;;1.88;0.70;;;17.70;90.70;;;;;;6260283;22;20019;-90
2022/09/03 08:09:42;;;;;;;1.58;0.55;;;17.80;90.30;;;;;;6285828;22;20611;-90
2022/09/03 08:12:08;;;;;;;1.20;0.60;;;17.80;90.20;;;;;;6286646;22;20018;-89
2022/09/03 08:14:34;;;;;;;0.80;0.50;;;17.80;90.10;;;;;;6284522;22;20390;-88
2022/09/03 08:17:00;;;;;;;1.40;0.55;;;17.90;90.10;;;;;;6260112;22;20014;-90
2022/09/03 08:19:25;;;;;;;3.53;0.88;;;17.90;90.00;;;;;;6235024;22;20056;-88
2022/09/03 08:22:07;;;;;;;1.45;0.60;;;18.00;89.90;;;;;;6286189;22;20084;-93
2022/09/03 08:24:34;;;;;;;2.00;0.77;;;18.10;89.70;;;;;;6261965;22;20011;-91
2022/09/03 08:26:59;;;;;;;2.65;0.95;;;18.10;89.50;;;;;;6286522;22;20019;-92
2022/09/03 08:29:26;;;;;;;1.17;0.50;;;18.20;89.60;;;;;;6286344;22;20046;-89
2022/09/03 08:31:52;;;;;;;;;;;18.20;89.40;;;;;;6260214;22;20015;-89
2022/09/03 08:34:18;;;;;;;1.90;0.70;;;18.30;89.40;;;;;;6285267;22;20308;-92
2022/09/03 08:36:45;;;;;;;;;;;18.30;89.00;;;;;;6287033;22;20317;-89
2022/09/03 08:39:12;;;;;;;1.23;0.63;;;18.40;88.00;;;;;;6286237;22;19914;-91
2022/09/03 08:41:50;;;;;;;;;;;18.40;88.30;;;;;;6286809;22;20071;-90
2022/09/03 08:44:28;;;;;;;;;;;18.40;87.90;;;;;;6286384;22;20239;-89
2022/09/03 08:47:08;;;;;;;7.43;1.40;;;18.50;87.90;;;;;;6257661;22;19916;-89
2022/09/03 08:49:54;;;;;;;10.10;1.90;;;18.60;87.80;;;;;;6185081;23;20081;-90
2022/09/03 08:52:31;;;;;;;1.95;0.88;;;18.60;87.80;;;;;;6184776;23;20510;-86
2022/09/03 08:55:19;;;;;;;26.80;5.38;;;18.70;87.80;;;;;;6211156;23;20117;-87
2022/09/03 08:57:53;;;;;;;1.52;0.70;;;18.70;87.70;;;;;;6210146;23;20013;-87
2022/09/03 09:00:19;;;;;;;2.50;0.80;;;18.80;87.60;;;;;;6209868;23;20146;-88
2022/09/03 09:03:16;;;;;;;2.78;0.80;;;18.90;87.60;;;;;;6185198;23;20368;-89
2022/09/03 09:05:47;;;;;;;1.60;0.70;;;19.00;87.40;;;;;;6185261;23;20029;-87
2022/09/03 09:08:16;;;;;;;2.63;0.68;;;19.00;87.20;;;;;;6185024;23;20100;-88
2022/09/03 09:11:00;;;;;;;1.48;0.60;;;19.10;86.80;;;;;;6210582;23;20017;-88
2022/09/03 09:13:51;;;;;;;0.85;0.50;;;19.10;86.70;;;;;;6184408;23;20019;-89
2022/09/03 09:16:37;;;;;;;1.92;0.50;;;19.20;86.40;;;;;;6208374;23;20017;-91
2022/09/03 09:19:12;;;;;;;1.13;0.50;;;19.30;86.00;;;;;;6185017;23;20020;-91
2022/09/03 09:21:53;;;;;;;1.83;0.60;;;19.30;85.80;;;;;;6209887;23;20020;-89
2022/09/03 09:24:25;;;;;;;1.88;0.68;;;19.30;85.80;;;;;;6184978;23;20017;-90
2022/09/03 09:27:04;;;;;;;5.38;0.85;;;19.40;85.70;;;;;;6184806;23;20099;-87
2022/09/03 09:29:37;;;;;;;5.75;1.00;;;19.50;85.50;;;;;;6210635;23;20013;-92
2022/09/03 09:32:07;;;;;;;2.67;1.23;;;19.50;85.70;;;;;;6187380;23;20025;-93
2022/09/03 09:40:01;;;;;;;1.75;0.50;;;19.60;84.90;;;;;;6182219;22;20022;-88
2022/09/03 09:42:30;;;;;;;1.40;0.80;;;19.70;84.90;;;;;;6131805;23;20028;-91
2022/09/03 09:44:56;;;;;;;1.38;0.43;;;19.80;85.00;;;;;;6132017;23;20442;-87
2022/09/03 09:47:30;;;;;;;1.92;0.57;;;19.80;85.00;;;;;;6131816;23;20021;-92
2022/09/03 09:49:58;;;;;;;1.27;0.60;;;19.90;85.10;;;;;;6132387;23;20442;-86
2022/09/03 09:52:27;;;;;;;0.77;0.50;;;20.00;85.20;;;;;;6131703;22;20152;-86
2022/09/03 09:55:06;;;;;;;2.15;0.50;;;20.10;84.20;;;;;;6155144;22;20028;-86
2022/09/03 09:57:33;;;;;;;1.45;0.65;;;20.10;84.00;;;;;;6129267;22;20013;-86
2022/09/03 10:00:14;;;;;;;1.10;0.60;;;20.20;83.80;;;;;;6131709;22;20097;-85
2022/09/03 10:02:47;;;;;;;2.65;0.60;;;20.20;83.30;;;;;;6131409;23;20028;-86
2022/09/03 10:05:15;;;;;;;2.05;0.50;;;20.30;83.50;;;;;;6155895;22;20017;-87
2022/09/03 10:07:41;;;;;;;1.10;0.50;;;20.40;83.40;;;;;;6132279;23;20017;-91
2022/09/03 10:10:18;;;;;;;2.35;0.50;;;20.50;83.10;;;;;;6132379;23;20055;-95
2022/09/03 10:13:09;;;;;;;1.58;0.80;;;20.60;83.00;;;;;;6131939;23;20014;-91
2022/09/03 10:16:07;;;;;;;2.05;0.60;;;20.70;82.90;;;;;;6156129;22;20025;-88
2022/09/03 10:18:45;;;;;;;16.80;3.88;;;20.80;81.90;;;;;;6131507;23;20017;-86
2022/09/03 10:21:23;;;;;;;16.38;3.72;;;20.90;82.10;;;;;;6131100;22;20025;-87
2022/09/03 10:24:26;;;;;;;17.20;2.25;;;21.00;82.30;;;;;;6129487;23;20047;-88
2022/09/03 10:26:51;;;;;;;8.35;1.38;;;21.10;82.30;;;;;;6130211;23;20017;-88
2022/09/03 10:29:22;;;;;;;1.48;0.70;;;21.20;82.00;;;;;;6131016;23;20013;-89
2022/09/03 10:32:09;;;;;;;9.07;1.70;;;21.30;81.50;;;;;;6129266;23;20028;-91
2022/09/03 10:35:11;;;;;;;2.47;0.95;;;21.40;80.50;;;;;;6131644;22;20022;-88
2022/09/03 10:37:42;;;;;;;3.13;0.85;;;21.50;80.30;;;;;;6130429;22;20069;-89
2022/09/03 10:40:36;;;;;;;8.32;2.25;;;21.60;79.60;;;;;;6123170;23;20104;-90
2022/09/03 10:43:50;;;;;;;2.15;0.68;;;21.70;78.80;;;;;;6100170;22;20057;-89
2022/09/03 10:46:26;;;;;;;1.17;0.50;;;21.80;79.50;;;;;;6105903;23;20018;-91
2022/09/03 10:49:10;;;;;;;2.87;0.70;;;21.90;78.80;;;;;;6106288;23;20021;-90
2022/09/03 10:52:04;;;;;;;1.23;0.43;;;22.10;78.20;;;;;;6106081;23;20137;-89
2022/09/03 10:55:11;;;;;;;1.95;0.60;;;22.10;77.60;;;;;;6103989;23;20410;-89
2022/09/03 10:57:54;;;;;;;4.43;1.02;;;22.30;76.60;;;;;;6102326;23;20443;-90
2022/09/03 11:00:29;;;;;;;1.58;0.60;;;22.40;76.50;;;;;;6102375;22;20067;-90
2022/09/03 11:03:16;;;;;;;1.08;0.47;;;22.50;76.30;;;;;;6126692;23;20018;-88
2022/09/03 11:05:52;;;;;;;0.52;0.30;;;22.60;75.70;;;;;;6102064;22;20029;-90
2022/09/03 11:08:31;;;;;;;1.33;0.40;;;22.70;75.20;;;;;;6102254;23;20018;-89
2022/09/03 11:11:08;;;;;;;1.65;0.73;;;22.80;74.10;;;;;;6126560;23;20021;-88
2022/09/03 11:13:52;;;;;;;1.00;0.60;;;22.90;74.60;;;;;;6102056;22;20025;-90
2022/09/03 11:16:25;;;;;;;0.82;0.40;;;23.00;74.60;;;;;;6102382;23;20021;-89
2022/09/03 11:19:17;;;;;;;2.40;0.60;;;23.10;73.90;;;;;;6102156;22;20013;-90
2022/09/03 11:21:43;;;;;;;1.42;0.60;;;23.20;73.00;;;;;;6102140;23;20443;-88
2022/09/03 11:24:13;;;;;;;0.98;0.50;;;23.30;72.80;;;;;;6102286;22;20029;-87
2022/09/03 11:26:43;;;;;;;0.73;0.40;;;23.30;72.70;;;;;;6102159;23;20021;-89
2022/09/03 11:29:24;;;;;;;0.70;0.40;;;23.40;72.30;;;;;;6102346;23;20018;-91
2022/09/03 11:31:56;;;;;;;1.05;0.43;;;23.50;71.50;;;;;;6102179;22;20021;-92
2022/09/03 11:34:32;;;;;;;1.20;0.30;;;23.50;70.80;;;;;;6102502;23;20466;-89
2022/09/03 11:37:20;;;;;;;1.35;0.47;;;23.60;70.90;;;;;;6102285;23;20018;-89
2022/09/03 11:40:12;;;;;;;0.60;0.38;;;23.70;71.00;;;;;;6104200;22;20466;-88
2022/09/03 11:42:41;;;;;;;0.95;0.30;;;23.90;70.70;;;;;;6131535;23;20024;-92
2022/09/03 11:45:29;;;;;;;1.58;0.40;;;24.00;71.00;;;;;;6131247;22;20092;-88
2022/09/03 11:47:55;;;;;;;1.98;0.50;;;24.00;70.10;;;;;;6131466;23;20104;-90
2022/09/03 11:50:35;;;;;;;;;;;24.20;70.30;;;;;;6131799;23;20017;-89
2022/09/03 11:53:12;;;;;;;1.20;0.50;;;24.20;68.20;;;;;;6131283;23;19939;-88
2022/09/03 11:56:05;;;;;;;1.15;0.40;;;24.30;69.30;;;;;;6131174;23;20096;-90
2022/09/03 11:58:35;;;;;;;0.70;0.30;;;24.40;68.90;;;;;;6152392;22;20103;-92
2022/09/03 12:01:09;;;;;;;1.20;0.40;;;24.40;69.20;;;;;;6131645;23;20024;-90
2022/09/03 12:03:46;;;;;;;22.80;2.80;;;24.60;69.30;;;;;;6156792;22;20043;-94
2022/09/03 12:06:50;;;;;;;1.95;0.82;;;24.70;68.80;;;;;;6129670;23;20023;-91
2022/09/03 12:09:44;;;;;;;2.65;0.60;;;24.80;67.70;;;;;;6130815;22;20021;-94
2022/09/03 12:12:44;;;;;;;25.70;4.30;;;24.80;68.20;;;;;;6129708;23;20017;-90
2022/09/03 12:15:51;;;;;;;33.33;5.88;;;24.90;67.20;;;;;;6130687;22;20539;-90
2022/09/03 12:18:28;;;;;;;22.00;5.38;;;25.00;67.20;;;;;;6155648;22;20096;-89
2022/09/03 12:20:54;;;;;;;41.97;7.20;;;25.00;67.10;;;;;;6131990;23;20454;-91
2022/09/03 12:23:27;;;;;;;;;;;25.00;67.40;;;;;;6156298;22;20403;-90
2022/09/03 12:25:53;;;;;;;17.35;3.75;;;25.10;64.80;;;;;;6154323;22;19916;-90
2022/09/03 12:28:22;;;;;;;11.63;1.77;;;25.10;67.20;;;;;;6130593;22;20097;-89
2022/09/03 12:31:00;;;;;;;3.25;1.02;;;25.20;67.10;;;;;;6131487;22;20018;-91
2022/09/03 12:33:27;;;;;;;3.40;0.70;;;25.30;65.90;;;;;;6132611;23;20049;-91
2022/09/03 12:56:30;;;;;;;1.08;0.50;;;25.20;63.00;;;;;;6233897;22;20019;-88
2022/09/03 12:59:04;;;;;;;0.93;0.47;;;25.20;63.00;;;;;;6286410;22;20051;-88
2022/09/03 13:01:37;;;;;;;0.98;0.50;;;25.10;62.40;;;;;;6285560;22;20080;-91
2022/09/03 13:04:15;;;;;;;2.10;0.47;;;25.10;62.60;;;;;;6285572;22;20098;-90
2022/09/03 13:07:10;;;;;;;2.80;0.40;;;25.10;62.90;;;;;;6285783;22;20026;-88
2022/09/03 13:09:38;;;;;;;0.55;0.40;;;25.10;62.50;;;;;;6285523;22;20022;-90
2022/09/03 13:12:04;;;;;;;0.77;0.43;;;25.20;62.80;;;;;;6285830;22;20050;-87
2022/09/03 13:14:46;;;;;;;1.10;0.38;;;25.20;62.10;;;;;;6286186;22;20023;-90
2022/09/03 13:19:47;;;;;;;1.70;0.50;;;25.20;62.10;;;;;;6337576;22;20084;-87
2022/09/03 13:22:19;;;;;;;;;;;25.20;62.20;;;;;;6312165;22;20432;-89
2022/09/03 13:25:03;;;;;;;12.80;3.13;;;25.20;60.70;;;;;;6285540;22;19917;-88
2022/09/03 13:27:43;;;;;;;88.82;15.85;;;25.20;61.40;;;;;;6285624;22;20044;-92
2022/09/03 13:30:18;;;;;;;4.53;1.33;;;25.20;61.60;;;;;;6285337;22;20019;-89
2022/09/03 13:32:43;;;;;;;2.33;0.70;;;25.20;62.00;;;;;;6285594;22;20018;-88
2022/09/03 13:35:09;;;;;;;;;;;25.20;61.90;;;;;;6286409;22;20021;-89
2022/09/03 13:37:40;;;;;;;0.77;0.60;;;25.20;61.00;;;;;;6286136;22;19914;-89
2022/09/03 13:40:40;;;;;;;1.23;0.40;;;25.20;61.10;;;;;;6311596;22;20107;-89
2022/09/03 13:43:23;;;;;;;0.85;0.40;;;25.10;60.60;;;;;;6339090;22;20015;-90
2022/09/03 13:46:05;;;;;;;1.33;0.57;;;25.00;60.60;;;;;;6285844;22;20386;-87
2022/09/03 13:52:06;;;;;;;1.42;0.60;;;25.00;61.20;;;;;;6311348;22;20018;-90
2022/09/03 14:36:35;;;;;;;1.33;0.43;;;24.60;60.40;;;;;;6343989;22;20022;-94
2022/09/03 14:39:41;;;;;;;1.13;0.47;;;24.60;60.40;;;;;;6325350;22;20072;-92
2022/09/03 14:53:07;;;;;;;0.93;0.45;;;24.40;60.80;;;;;;6257227;22;20025;-88
2022/09/03 14:56:20;;;;;;;1.90;0.95;;;24.40;60.70;;;;;;6157852;23;20016;-89
2022/09/03 15:04:56;;;;;;;0.93;0.40;;;24.30;60.90;;;;;;6161122;23;20066;-89
2022/09/03 15:28:17;;;;;;;0.70;0.40;;;24.10;61.20;;;;;;6197707;23;20100;-87
2022/09/03 15:41:55;;;;;;;1.50;0.45;;;23.90;61.90;;;;;;6210762;23;20358;-88
2022/09/03 15:44:24;;;;;;;1.42;0.55;;;23.90;62.50;;;;;;6159720;23;20669;-90
2022/09/03 15:46:58;;;;;;;0.75;0.55;;;23.90;62.90;;;;;;6159377;23;20366;-87
2022/09/03 15:49:51;;;;;;;0.77;0.40;;;23.90;62.90;;;;;;6185098;23;20472;-87
2022/09/03 15:52:26;;;;;;;1.02;0.45;;;23.80;63.10;;;;;;6160466;23;20109;-88
2022/09/03 15:55:27;;;;;;;0.88;0.40;;;23.80;63.30;;;;;;6157956;23;20095;-87
2022/09/03 16:45:13;;;;;;;1.70;0.63;;;23.30;65.80;;;;;;6300472;22;20023;-87
2022/09/03 16:47:45;;;;;;;1.10;0.50;;;23.20;65.70;;;;;;6223761;22;20027;-89
2022/09/03 16:50:25;;;;;;;1.17;0.55;;;23.20;65.80;;;;;;6224220;22;20020;-88
2022/09/03 16:53:06;;;;;;;1.17;0.50;;;23.20;66.00;;;;;;6249396;22;20134;-88
2022/09/03 17:02:47;;;;;;;1.85;0.50;;;23.00;66.20;;;;;;6248945;22;20336;-86
2022/09/03 17:05:45;;;;;;;1.27;0.63;;;23.00;66.40;;;;;;6223979;22;20023;-91
2022/09/03 17:08:50;;;;;;;0.80;0.40;;;23.00;67.00;;;;;;6222692;22;20026;-86
2022/09/03 17:11:35;;;;;;;1.50;0.60;;;22.90;67.30;;;;;;6246431;22;20016;-86
2022/09/03 17:14:31;;;;;;;1.88;0.50;;;22.80;67.40;;;;;;6249641;22;20011;-88
2022/09/03 17:16:59;;;;;;;1.00;0.50;;;22.80;67.60;;;;;;6273310;22;20011;-86
2022/09/03 17:19:55;;;;;;;1.42;0.52;;;22.70;67.60;;;;;;6257659;22;20015;-85
2022/09/03 17:30:59;;;;;;;0.75;0.50;;;22.50;68.00;;;;;;6293207;22;20031;-89
2022/09/03 17:33:43;;;;;;;1.10;0.40;;;22.40;68.20;;;;;;6194874;23;20095;-93
2022/09/03 17:36:45;;;;;;;1.70;0.57;;;22.40;68.50;;;;;;6165540;23;20074;-87
2022/09/03 17:43:32;;;;;;;1.00;0.55;;;22.30;68.70;;;;;;6213642;23;20092;-91
2022/09/03 17:46:38;;;;;;;1.52;0.60;;;22.20;68.60;;;;;;6163118;23;20457;-96
2022/09/03 17:51:46;;;;;;;1.23;0.50;;;22.10;69.00;;;;;;6237132;22;20076;-89
2022/09/03 17:54:33;;;;;;;1.33;0.50;;;22.10;69.20;;;;;;6289073;22;20022;-90
2022/09/03 17:57:17;;;;;;;1.38;0.55;;;22.00;69.60;;;;;;6289779;22;20018;-89
2022/09/03 20:10:58;;;;;;;2.20;0.60;;;20.10;72.80;;;;;;6155261;23;20158;-88
2022/09/03 20:13:24;;;;;;;0.90;0.50;;;20.10;72.70;;;;;;6130418;23;20475;-91
2022/09/03 20:15:52;;;;;;;0.52;0.40;;;20.10;72.80;;;;;;6154204;22;20018;-89
2022/09/03 20:22:40;;;;;;;1.15;0.50;;;19.90;73.00;;;;;;6181086;23;20047;-89
2022/09/03 20:25:30;;;;;;;1.83;0.60;;;19.90;73.20;;;;;;6129967;23;20044;-89
2022/09/03 20:28:25;;;;;;;0.90;0.50;;;19.80;73.50;;;;;;6129781;23;20096;-95
2022/09/03 20:31:04;;;;;;;1.02;0.60;;;19.70;73.50;;;;;;6153813;23;20013;-90
2022/09/03 20:34:15;;;;;;;1.55;0.65;;;19.60;73.70;;;;;;6128723;23;20017;-89
2022/09/03 20:37:10;;;;;;;0.77;0.40;;;19.50;73.90;;;;;;6132312;23;20013;-87
2022/09/03 20:39:55;;;;;;;1.58;0.60;;;19.50;74.20;;;;;;6132525;23;20021;-88
2022/09/03 20:45:08;;;;;;;0.68;0.40;;;19.30;74.20;;;;;;6197970;22;20054;-88
2022/09/03 20:48:09;;;;;;;1.27;0.50;;;19.30;74.40;;;;;;6285255;22;20318;-88
2022/09/03 20:51:01;;;;;;;0.88;0.60;;;19.20;74.60;;;;;;6133845;23;20075;-90
2022/09/03 20:53:48;;;;;;;1.95;0.50;;;19.10;74.90;;;;;;6269952;22;20023;-89
2022/09/03 20:56:19;;;;;;;1.23;0.50;;;19.10;75.10;;;;;;6285832;22;20042;-89
2022/09/03 20:59:20;;;;;;;1.10;0.50;;;19.00;75.10;;;;;;6285888;22;20348;-87
2022/09/03 21:02:42;;;;;;;1.25;0.52;;;18.90;75.40;;;;;;6311250;22;20022;-91
2022/09/03 21:09:15;;;;;;;0.95;0.40;;;18.90;75.80;;;;;;6335901;22;20051;-91
2022/09/03 21:12:06;;;;;;;1.45;0.70;;;18.80;75.80;;;;;;6285409;22;20018;-90
2022/09/03 21:32:53;;;;;;;2.38;0.52;;;18.60;76.10;;;;;;6261784;22;20028;-88
2022/09/03 21:36:10;;;;;;;2.63;0.70;;;18.60;76.30;;;;;;6186846;23;20031;-87
2022/09/03 21:38:40;;;;;;;0.98;0.60;;;18.50;76.50;;;;;;6159216;23;20510;-90
2022/09/03 21:41:22;;;;;;;1.15;0.60;;;18.50;76.50;;;;;;6158901;23;20027;-85
2022/09/03 21:43:51;;;;;;;1.92;0.68;;;18.40;76.50;;;;;;6160612;23;20013;-86
2022/09/03 21:50:42;;;;;;;1.38;0.70;;;18.30;76.90;;;;;;6211452;23;20085;-86
2022/09/03 21:53:35;;;;;;;1.63;0.68;;;18.30;77.20;;;;;;6159111;23;20081;-90
2022/09/03 21:56:29;;;;;;;1.55;0.80;;;18.20;77.20;;;;;;6165154;23;20013;-86
2022/09/03 21:59:19;;;;;;;1.58;0.70;;;18.20;77.20;;;;;;6160377;23;20021;-88
2022/09/03 22:01:51;;;;;;;1.45;0.60;;;18.10;77.30;;;;;;6160529;23;20066;-89
2022/09/03 22:04:16;;;;;;;1.50;0.60;;;18.10;77.40;;;;;;6161478;23;20091;-87
2022/09/03 22:06:48;;;;;;;1.05;0.60;;;18.00;77.30;;;;;;6185987;23;20048;-86
2022/09/03 22:09:30;;;;;;;1.17;0.70;;;18.00;77.60;;;;;;6161024;23;20023;-87
2022/09/03 22:12:10;;;;;;;2.72;0.60;;;18.00;77.60;;;;;;6161367;23;20013;-88
2022/09/03 22:14:46;;;;;;;1.40;0.65;;;18.00;77.80;;;;;;6161328;23;20025;-84
2022/09/03 22:17:34;;;;;;;2.28;1.02;;;17.90;77.80;;;;;;6161449;23;20013;-87
2022/09/03 22:49:22;;;;;;;2.50;0.77;;;17.30;78.60;;;;;;6262753;22;20020;-89
2022/09/03 22:55:32;;;;;;;2.53;0.85;;;17.20;78.80;;;;;;6211906;23;20020;-91
2022/09/03 23:11:25;;;;;;;1.30;0.60;;;17.00;78.90;;;;;;6209845;23;20028;-89
2022/09/03 23:16:37;;;;;;;1.38;0.70;;;16.90;79.00;;;;;;6157209;22;20032;-90
2022/09/03 23:27:58;;;;;;;2.28;0.95;;;16.80;79.20;;;;;;6203394;23;20021;-88
2022/09/03 23:30:50;;;;;;;2.20;0.82;;;16.80;79.30;;;;;;6161238;23;20104;-89
2022/09/03 23:33:16;;;;;;;2.40;0.80;;;16.80;79.40;;;;;;6161614;22;20016;-88
2022/09/03 23:35:57;;;;;;;2.40;1.00;;;16.80;79.30;;;;;;6160626;23;20073;-89
2022/09/03 23:38:38;;;;;;;1.75;0.70;;;16.80;79.40;;;;;;6160785;23;20016;-88
2022/09/03 23:41:09;;;;;;;2.55;0.73;;;16.70;79.50;;;;;;6160630;22;20017;-89
2022/09/03 23:43:57;;;;;;;2.03;0.70;;;16.70;79.50;;;;;;6185701;22;20013;-88
2022/09/03 23:50:47;;;;;;;1.48;0.70;;;16.60;79.80;;;;;;6211779;23;20074;-87
2022/09/03 23:53:28;;;;;;;1.25;0.63;;;16.60;79.70;;;;;;6160842;23;20020;-88
2022/09/03 23:56:28;;;;;;;2.00;0.70;;;16.50;79.80;;;;;;6160474;23;20012;-89
2022/09/03 23:59:28;;;;;;;2.30;0.70;;;16.50;80.00;;;;;;6161192;23;20048;-86
